Humidity-temperature Sensor

Selected Measurement Type: Air Temperature

 
Air Temperature [°C]     6 entries per hour
Showing data from 12/3/2022 (00:00:00 Z) to 11/26/2022 (00:01:00 Z)
Previous Next [ Day | 3-Days | 7-Days ]
First Last
Prev [ Day | 3-Days | 7-Days ] Next
First Last

Start Time:     :
End Time:     :     
Time (in GMT) :00 :50 :40 :30 :20 :10
Previous Next [ Day | 3-Days | 7-Days ]
First Last
Prev [ Day | 3-Days | 7-Days ] Next
First Last


123 => good data
MM => data is determined as missing
-- => data not received/configured
Back to Top Back to Top
12/3/2022 00:00 to 23:10 24.82 24.88 24.82 25.15 25.21 25.22
12/2/2022 23:00 to 22:10 24.98 24.45 24.43 24.01 24.00 24.15
12/2/2022 22:00 to 21:10 24.17 24.17 24.08 24.45 24.30 24.93
12/2/2022 21:00 to 20:10 24.99 24.60 24.42 24.54 24.93 24.90
12/2/2022 20:00 to 19:10 24.98 24.90 24.84 24.63 24.47 24.91
12/2/2022 19:00 to 18:10 24.98 24.85 24.83 25.10 25.45 25.36
12/2/2022 18:00 to 17:10 25.47 25.34 25.52 25.28 25.35 25.44
12/2/2022 17:00 to 16:10 25.47 25.30 25.25 25.36 25.29 25.14
12/2/2022 16:00 to 15:10 25.32 25.09 25.09 25.21 25.38 25.50
12/2/2022 15:00 to 14:10 25.36 25.25 25.31 25.34 25.42 25.14
12/2/2022 14:00 to 13:10 25.06 25.02 25.01 25.15 25.30 25.28
12/2/2022 13:00 to 12:10 25.08 25.07 24.98 24.95 25.11 24.88
12/2/2022 12:00 to 11:10 25.05 24.98 24.84 24.96 24.77 24.82
12/2/2022 11:00 to 10:10 24.83 24.58 24.82 24.32 24.27 24.01
12/2/2022 10:00 to 9:10 24.07 23.83 24.07 24.06 24.25 23.95
12/2/2022 09:00 to 8:10 -- -- -- -- -- --
12/2/2022 08:00 to 7:10 24.42 24.51 24.51 24.66 25.06 25.08
12/2/2022 07:00 to 6:10 24.99 24.79 24.65 24.60 24.67 24.64
12/2/2022 06:00 to 5:10 24.51 24.36 24.20 24.39 24.22 24.31
12/2/2022 05:00 to 4:10 24.43 24.15 24.49 24.13 24.43 24.84
12/2/2022 04:00 to 3:10 24.80 25.06 25.14 25.26 25.28 25.35
12/2/2022 03:00 to 2:10 25.37 25.45 25.38 25.27 25.40 25.40
12/2/2022 02:00 to 1:10 25.35 25.40 25.22 25.14 25.22 25.19
12/2/2022 01:00 to 0:10 25.25 25.40 25.30 25.41 25.39 25.40
12/2/2022 00:00 to 23:10 25.24 25.43 25.14 25.01 25.17 25.43
12/1/2022 23:00 to 22:10 25.29 25.36 25.28 25.29 25.47 25.43
12/1/2022 22:00 to 21:10 25.48 25.15 25.05 25.25 25.18 25.11
12/1/2022 21:00 to 20:10 25.00 25.11 24.96 25.23 25.16 25.30
12/1/2022 20:00 to 19:10 25.40 25.52 25.48 25.37 25.42 25.28
12/1/2022 19:00 to 18:10 25.29 25.21 25.32 25.15 25.20 24.97
12/1/2022 18:00 to 17:10 24.99 24.97 25.08 25.14 24.93 25.03
12/1/2022 17:00 to 16:10 25.08 24.87 24.96 24.98 24.98 24.63
12/1/2022 16:00 to 15:10 24.75 24.79 24.84 24.78 24.59 25.06
12/1/2022 15:00 to 14:10 24.67 24.70 24.54 24.46 24.43 24.21
12/1/2022 14:00 to 13:10 24.25 24.28 24.20 24.35 24.32 24.05
12/1/2022 13:00 to 12:10 24.16 24.02 23.99 23.83 24.05 24.03
12/1/2022 12:00 to 11:10 24.10 23.91 24.06 23.86 23.91 24.24
12/1/2022 11:00 to 10:10 24.08 24.22 23.99 24.17 23.93 24.13
12/1/2022 10:00 to 9:10 24.12 24.07 24.02 23.99 23.94 24.17
12/1/2022 09:00 to 8:10 24.29 24.10 24.31 24.22 24.47 24.41
12/1/2022 08:00 to 7:10 24.51 24.45 24.65 24.46 24.54 24.65
12/1/2022 07:00 to 6:10 24.77 24.76 24.91 24.69 24.76 24.79
12/1/2022 06:00 to 5:10 24.70 24.67 24.75 24.61 24.91 25.04
12/1/2022 05:00 to 4:10 24.77 24.91 24.90 24.91 24.70 24.87
12/1/2022 04:00 to 3:10 24.82 24.60 24.71 24.63 24.78 24.84
12/1/2022 03:00 to 2:10 24.86 24.74 24.89 24.60 24.38 24.58
12/1/2022 02:00 to 1:10 24.42 24.41 24.47 24.22 24.40 24.07
12/1/2022 01:00 to 0:10 24.37 24.10 24.38 23.89 24.03 24.12
12/1/2022 00:00 to 23:10 24.13 24.01 24.05 24.13 23.84 24.16
11/30/2022 23:00 to 22:10 23.89 24.18 24.13 24.13 24.18 24.01
11/30/2022 22:00 to 21:10 24.08 24.27 24.11 24.08 24.25 24.40
11/30/2022 21:00 to 20:10 24.41 24.41 24.48 24.29 24.88 24.58
11/30/2022 20:00 to 19:10 24.76 24.79 24.49 24.70 24.73 24.73
11/30/2022 19:00 to 18:10 24.47 24.42 24.61 24.69 24.69 24.70
11/30/2022 18:00 to 17:10 24.81 24.57 24.63 24.46 24.41 24.59
11/30/2022 17:00 to 16:10 24.76 25.16 25.34 25.26 25.39 25.31
11/30/2022 16:00 to 15:10 25.21 25.11 24.99 25.21 25.16 25.29
11/30/2022 15:00 to 14:10 25.19 25.09 24.88 24.89 24.86 25.00
11/30/2022 14:00 to 13:10 24.88 24.58 24.72 24.87 24.59 24.61
11/30/2022 13:00 to 12:10 24.49 24.72 24.50 24.26 24.30 24.21
11/30/2022 12:00 to 11:10 24.02 23.82 24.13 23.93 23.85 23.70
11/30/2022 11:00 to 10:10 24.03 24.03 23.94 24.14 24.01 24.03
11/30/2022 10:00 to 9:10 24.00 24.13 24.32 24.26 24.34 24.17
11/30/2022 09:00 to 8:10 24.37 24.47 24.52 24.32 24.36 24.46
11/30/2022 08:00 to 7:10 24.34 24.42 24.39 24.19 24.03 24.19
11/30/2022 07:00 to 6:10 24.07 24.06 23.85 23.99 23.99 23.93
11/30/2022 06:00 to 5:10 24.01 23.84 23.70 23.71 23.73 23.78
11/30/2022 05:00 to 4:10 23.73 23.76 23.77 23.67 23.70 23.47
11/30/2022 04:00 to 3:10 23.63 23.70 23.63 23.60 23.61 23.69
11/30/2022 03:00 to 2:10 23.62 23.96 23.94 23.90 24.06 24.09
11/30/2022 02:00 to 1:10 23.92 23.98 24.11 24.13 23.93 23.79
11/30/2022 01:00 to 0:10 23.97 23.91 23.96 23.99 24.16 24.10
11/30/2022 00:00 to 23:10 23.92 23.96 24.12 23.98 24.07 23.78
11/29/2022 23:00 to 22:10 24.06 23.97 23.85 24.03 24.09 24.46
11/29/2022 22:00 to 21:10 24.25 24.15 24.23 24.35 24.37 24.30
11/29/2022 21:00 to 20:10 24.12 24.11 24.29 24.00 24.05 24.36
11/29/2022 20:00 to 19:10 23.99 23.96 23.90 24.23 24.09 24.00
11/29/2022 19:00 to 18:10 24.24 24.35 24.51 24.38 24.36 24.53
11/29/2022 18:00 to 17:10 24.53 24.92 24.79 24.75 24.55 24.54
11/29/2022 17:00 to 16:10 24.59 24.59 24.66 24.66 24.63 24.60
11/29/2022 16:00 to 15:10 24.22 24.26 24.45 24.31 24.36 24.32
11/29/2022 15:00 to 14:10 24.15 24.01 24.24 24.26 24.51 24.16
11/29/2022 14:00 to 13:10 24.67 24.95 24.89 24.90 24.55 24.53
11/29/2022 13:00 to 12:10 24.58 24.42 24.52 24.61 24.95 25.45
11/29/2022 12:00 to 11:10 25.35 25.41 25.40 25.18 25.35 25.28
11/29/2022 11:00 to 10:10 25.27 25.28 25.30 25.51 25.49 25.75
11/29/2022 10:00 to 9:10 25.28 25.40 25.37 25.44 25.16 25.36
11/29/2022 09:00 to 8:10 25.27 25.33 25.31 25.35 25.31 25.43
11/29/2022 08:00 to 7:10 25.53 25.64 25.77 25.90 25.70 25.86
11/29/2022 07:00 to 6:10 25.80 25.74 25.84 25.77 25.91 25.80
11/29/2022 06:00 to 5:10 25.78 25.77 25.50 25.34 25.15 25.07
11/29/2022 05:00 to 4:10 25.13 24.82 24.93 24.78 24.82 24.80
11/29/2022 04:00 to 3:10 24.97 24.94 25.12 25.22 25.34 25.42
11/29/2022 03:00 to 2:10 25.55 25.49 25.57 25.54 25.34 25.33
11/29/2022 02:00 to 1:10 25.31 25.10 25.17 25.52 25.50 25.61
11/29/2022 01:00 to 0:10 25.52 25.60 25.56 25.68 25.51 25.50
11/29/2022 00:00 to 23:10 25.80 25.51 25.57 25.56 25.49 25.54
11/28/2022 23:00 to 22:10 25.79 25.44 25.76 25.60 25.34 25.65
11/28/2022 22:00 to 21:10 25.61 25.73 25.59 25.50 25.61 25.49
11/28/2022 21:00 to 20:10 25.42 25.40 25.32 25.28 25.28 25.18
11/28/2022 20:00 to 19:10 25.05 25.27 25.52 25.43 25.49 25.29
11/28/2022 19:00 to 18:10 25.30 25.42 25.47 25.62 25.47 25.32
11/28/2022 18:00 to 17:10 25.31 25.15 25.25 25.50 25.62 25.46
11/28/2022 17:00 to 16:10 25.41 25.38 25.18 25.09 25.28 25.06
11/28/2022 16:00 to 15:10 25.18 25.21 25.01 25.07 24.90 24.94
11/28/2022 15:00 to 14:10 24.83 25.18 25.12 24.93 24.85 24.83
11/28/2022 14:00 to 13:10 25.03 25.35 24.96 24.61 24.83 24.63
11/28/2022 13:00 to 12:10 24.59 24.90 25.39 24.89 25.17 25.23
11/28/2022 12:00 to 11:10 25.35 25.23 25.09 25.20 25.06 25.10
11/28/2022 11:00 to 10:10 25.18 25.16 25.24 25.35 25.17 25.04
11/28/2022 10:00 to 9:10 24.90 24.86 24.62 24.97 24.63 24.47
11/28/2022 09:00 to 8:10 24.35 24.13 24.33 24.82 24.93 25.07
11/28/2022 08:00 to 7:10 25.30 25.30 25.26 25.50 25.28 24.99
11/28/2022 07:00 to 6:10 24.90 24.90 24.78 24.74 24.59 24.73
11/28/2022 06:00 to 5:10 24.38 24.09 24.15 24.07 24.08 24.02
11/28/2022 05:00 to 4:10 24.40 24.76 24.69 24.62 24.55 24.49
11/28/2022 04:00 to 3:10 24.73 24.87 25.05 25.14 24.87 25.44
11/28/2022 03:00 to 2:10 25.47 25.26 25.27 25.23 25.06 24.98
11/28/2022 02:00 to 1:10 24.94 24.97 24.85 24.86 24.89 24.74
11/28/2022 01:00 to 0:10 24.78 25.07 24.82 25.02 24.97 25.22
11/28/2022 00:00 to 23:10 25.14 25.14 25.58 25.04 25.26 25.52
11/27/2022 23:00 to 22:10 25.25 25.28 25.26 25.15 25.18 25.38
11/27/2022 22:00 to 21:10 25.41 25.39 25.40 25.42 25.60 25.82
11/27/2022 21:00 to 20:10 25.49 25.48 25.41 25.45 25.18 24.90
11/27/2022 20:00 to 19:10 25.03 25.25 25.28 25.22 25.20 25.15
11/27/2022 19:00 to 18:10 24.89 24.82 24.32 24.37 24.80 25.13
11/27/2022 18:00 to 17:10 25.06 25.36 25.31 25.28 25.11 25.20
11/27/2022 17:00 to 16:10 25.31 25.21 25.43 25.25 25.28 25.11
11/27/2022 16:00 to 15:10 25.31 24.95 24.98 24.90 25.26 25.31
11/27/2022 15:00 to 14:10 25.24 25.23 24.93 24.94 24.19 25.00
11/27/2022 14:00 to 13:10 24.90 25.15 25.00 24.77 24.61 24.92
11/27/2022 13:00 to 12:10 25.02 24.93 24.85 24.71 24.71 24.63
11/27/2022 12:00 to 11:10 24.70 24.63 24.62 24.75 24.55 24.58
11/27/2022 11:00 to 10:10 24.68 24.80 24.70 24.85 24.71 24.67
11/27/2022 10:00 to 9:10 24.69 24.79 24.66 24.53 24.63 24.57
11/27/2022 09:00 to 8:10 24.51 24.72 24.81 25.08 25.04 25.31
11/27/2022 08:00 to 7:10 25.34 25.21 25.01 25.07 24.92 25.01
11/27/2022 07:00 to 6:10 25.10 25.09 25.59 25.41 25.13 25.26
11/27/2022 06:00 to 5:10 25.06 25.27 25.39 25.30 25.32 25.43
11/27/2022 05:00 to 4:10 25.39 25.22 25.20 25.19 24.87 24.95
11/27/2022 04:00 to 3:10 24.89 25.11 24.85 25.05 25.57 25.15
11/27/2022 03:00 to 2:10 25.20 25.32 25.22 25.02 25.22 25.00
11/27/2022 02:00 to 1:10 25.20 25.30 25.50 25.32 25.03 25.31
11/27/2022 01:00 to 0:10 24.94 24.99 24.86 24.75 24.90 24.75
11/27/2022 00:00 to 23:10 24.90 24.59 24.47 24.83 24.88 24.55
11/26/2022 23:00 to 22:10 24.89 24.88 24.91 25.17 25.40 25.76
11/26/2022 22:00 to 21:10 25.40 25.29 25.30 25.24 25.31 25.28
11/26/2022 21:00 to 20:10 25.16 25.28 25.15 24.84 25.30 25.21
11/26/2022 20:00 to 19:10 25.27 24.83 24.75 24.95 24.46 24.97
11/26/2022 19:00 to 18:10 24.96 24.89 25.09 25.36 25.22 25.25
11/26/2022 18:00 to 17:10 25.27 25.06 25.15 25.26 25.39 25.22
11/26/2022 17:00 to 16:10 25.35 25.45 25.08 25.33 25.32 25.54
11/26/2022 16:00 to 15:10 25.32 25.16 25.27 25.27 25.25 25.28
11/26/2022 15:00 to 14:10 24.97 25.07 25.21 25.18 24.98 24.96
11/26/2022 14:00 to 13:10 24.85 25.02 24.69 24.75 24.84 24.88
11/26/2022 13:00 to 12:10 24.78 24.99 24.77 24.76 24.69 24.72
11/26/2022 12:00 to 11:10 24.75 24.89 24.60 24.91 25.22 25.07
11/26/2022 11:00 to 10:10 25.00 25.18 25.12 25.22 25.28 25.09
11/26/2022 10:00 to 9:10 25.36 25.44 25.18 25.35 25.17 25.11
11/26/2022 09:00 to 8:10 25.28 25.04 25.38 25.23 25.32 25.16
11/26/2022 08:00 to 7:10 25.19 25.28 25.31 25.33 25.30 25.21
11/26/2022 07:00 to 6:10 25.18 25.04 25.25 25.90 26.13 25.74
11/26/2022 06:00 to 5:10 25.63 25.70 25.62 25.69 25.82 25.63
11/26/2022 05:00 to 4:10 25.72 25.89 25.48 25.66 25.59 25.49
11/26/2022 04:00 to 3:10 25.63 25.58 25.39 25.77 25.85 25.81
11/26/2022 03:00 to 2:10 25.79 25.90 25.58 25.70 25.84 25.54
11/26/2022 02:00 to 1:10 25.36 25.29 25.40 25.35 25.29 25.06
11/26/2022 01:00 to 0:10 24.61 24.67 24.74 24.43 24.77 24.83